createdAt,value
2017-07-06T00:00:03.980Z,53
2017-07-06T00:01:12.070Z,53
2017-07-06T00:02:20.157Z,53
2017-07-06T00:03:28.243Z,53
2017-07-06T00:04:36.333Z,53
2017-07-06T00:05:44.420Z,53
2017-07-06T00:06:52.508Z,53
2017-07-06T00:08:00.596Z,53
2017-07-06T00:09:08.685Z,53
2017-07-06T00:10:16.772Z,53
2017-07-06T00:11:24.863Z,53
2017-07-06T00:12:32.986Z,53
2017-07-06T00:13:41.036Z,53
2017-07-06T00:14:49.124Z,52
2017-07-06T00:15:57.211Z,52
2017-07-06T00:17:05.301Z,53
2017-07-06T00:18:13.388Z,53
2017-07-06T00:19:21.479Z,53
2017-07-06T00:20:29.565Z,53
2017-07-06T00:21:37.654Z,53
2017-07-06T00:22:45.742Z,53
2017-07-06T00:23:53.829Z,53
2017-07-06T00:25:01.917Z,53
2017-07-06T00:26:10.031Z,53
2017-07-06T00:27:18.094Z,52
2017-07-06T00:28:26.182Z,53
2017-07-06T00:29:34.340Z,53
2017-07-06T00:30:42.358Z,53
2017-07-06T00:31:50.447Z,53
2017-07-06T00:32:58.536Z,53
2017-07-06T00:34:06.620Z,53
2017-07-06T00:35:14.766Z,53
2017-07-06T00:36:22.797Z,53
2017-07-06T00:37:30.885Z,53
2017-07-06T00:38:38.973Z,53
2017-07-06T00:39:47.063Z,53
2017-07-06T00:40:55.150Z,53
2017-07-06T00:42:03.238Z,53
2017-07-06T00:43:11.325Z,53
2017-07-06T00:44:19.414Z,53
2017-07-06T00:45:27.501Z,53
2017-07-06T00:46:35.638Z,53
2017-07-06T00:47:43.678Z,53
2017-07-06T00:48:51.765Z,53
2017-07-06T00:49:59.854Z,52
2017-07-06T00:51:07.943Z,52
2017-07-06T00:52:16.029Z,52
2017-07-06T00:53:24.118Z,53
2017-07-06T00:54:32.206Z,53
2017-07-06T00:55:40.292Z,53
2017-07-06T00:56:48.382Z,53
2017-07-06T00:57:56.470Z,53
2017-07-06T00:59:04.555Z,52
2017-07-06T01:00:12.653Z,53
2017-07-06T01:01:20.749Z,53
2017-07-06T01:02:28.841Z,53
2017-07-06T01:03:36.938Z,52
2017-07-06T01:04:45.019Z,53
2017-07-06T01:05:53.109Z,52
2017-07-06T01:07:01.196Z,53
2017-07-06T01:08:09.283Z,52
2017-07-06T01:09:17.369Z,52
2017-07-06T01:10:25.455Z,53
2017-07-06T01:11:33.543Z,52
2017-07-06T01:12:41.635Z,53
2017-07-06T01:13:49.727Z,52
2017-07-06T01:14:57.817Z,53
2017-07-06T01:16:05.906Z,52
2017-07-06T01:17:14.000Z,52
2017-07-06T01:18:22.078Z,52
2017-07-06T01:19:30.166Z,53
2017-07-06T01:20:38.302Z,53
2017-07-06T01:21:46.346Z,52
2017-07-06T01:22:54.432Z,52
2017-07-06T01:24:02.520Z,52
2017-07-06T01:25:10.611Z,53
2017-07-06T01:26:18.698Z,53
2017-07-06T01:27:26.785Z,52
2017-07-06T01:28:34.876Z,53
2017-07-06T01:29:42.960Z,52
2017-07-06T01:30:51.048Z,53
2017-07-06T01:31:59.140Z,53
2017-07-06T01:33:07.225Z,52
2017-07-06T01:34:15.315Z,53
2017-07-06T01:35:23.402Z,53
2017-07-06T01:36:31.490Z,53
2017-07-06T01:37:39.597Z,52
2017-07-06T01:38:47.665Z,52
2017-07-06T01:39:55.753Z,53
2017-07-06T01:41:03.840Z,53
2017-07-06T01:42:11.931Z,53
2017-07-06T01:43:20.017Z,52
2017-07-06T01:44:28.104Z,53
2017-07-06T01:45:36.194Z,53
2017-07-06T01:46:44.283Z,53
2017-07-06T01:47:52.369Z,52
2017-07-06T01:49:00.456Z,53
2017-07-06T01:50:08.545Z,52
2017-07-06T01:51:16.633Z,53
2017-07-06T01:52:24.721Z,53
2017-07-06T01:53:32.809Z,53
2017-07-06T01:54:40.944Z,53
2017-07-06T01:55:48.987Z,53
2017-07-06T01:56:57.075Z,53
2017-07-06T01:58:05.158Z,53
2017-07-06T01:59:13.249Z,53
2017-07-06T02:00:21.338Z,53
2017-07-06T02:01:29.424Z,53
2017-07-06T02:02:37.514Z,53
2017-07-06T02:03:45.603Z,52
2017-07-06T02:04:53.689Z,53
2017-07-06T02:06:01.777Z,53
2017-07-06T02:07:09.864Z,53
2017-07-06T02:08:17.953Z,52
2017-07-06T02:09:26.041Z,53
2017-07-06T02:10:34.131Z,52
2017-07-06T02:11:42.276Z,53
2017-07-06T02:12:50.305Z,52
2017-07-06T02:13:58.394Z,52
2017-07-06T02:15:06.483Z,52
2017-07-06T02:16:14.570Z,53
2017-07-06T02:17:22.657Z,53
2017-07-06T02:18:30.746Z,52
2017-07-06T02:19:38.830Z,53
2017-07-06T02:20:46.920Z,53
2017-07-06T02:21:55.008Z,53
2017-07-06T02:23:03.095Z,52
2017-07-06T02:24:11.184Z,52
2017-07-06T02:25:19.273Z,52
2017-07-06T02:26:27.361Z,53
2017-07-06T02:27:35.447Z,53
2017-07-06T02:28:43.600Z,52
2017-07-06T02:29:51.629Z,52
2017-07-06T02:30:59.716Z,53
2017-07-06T02:32:07.805Z,52
2017-07-06T02:33:15.893Z,53
2017-07-06T02:34:23.982Z,53
2017-07-06T02:35:32.067Z,53
2017-07-06T02:36:40.156Z,52
2017-07-06T02:37:48.241Z,53
2017-07-06T02:38:56.331Z,52
2017-07-06T02:40:04.422Z,52
2017-07-06T02:41:12.510Z,52
2017-07-06T02:42:20.598Z,53
2017-07-06T02:43:28.686Z,52
2017-07-06T02:44:36.775Z,52
2017-07-06T02:45:44.867Z,52
2017-07-06T02:46:52.951Z,52
2017-07-06T02:48:01.037Z,52
2017-07-06T02:49:09.127Z,52
2017-07-06T02:50:17.212Z,53
2017-07-06T02:51:25.304Z,52
2017-07-06T02:52:33.395Z,52
2017-07-06T02:53:41.482Z,53
2017-07-06T02:54:49.566Z,52
2017-07-06T02:55:57.656Z,52
2017-07-06T02:57:05.748Z,52
2017-07-06T02:58:13.831Z,52
2017-07-06T02:59:21.920Z,52
2017-07-06T03:00:30.007Z,52
2017-07-06T03:01:38.096Z,52
2017-07-06T03:02:46.275Z,52
2017-07-06T03:03:54.270Z,52
2017-07-06T03:05:02.356Z,52
2017-07-06T03:06:10.447Z,53
2017-07-06T03:07:18.534Z,52
2017-07-06T03:08:26.621Z,52
2017-07-06T03:09:34.708Z,52
2017-07-06T03:10:42.796Z,52
2017-07-06T03:11:50.887Z,52
2017-07-06T03:12:58.975Z,52
2017-07-06T03:14:07.066Z,53
2017-07-06T03:15:15.151Z,52
2017-07-06T03:16:23.238Z,52
2017-07-06T03:17:31.326Z,53
2017-07-06T03:18:39.415Z,52
2017-07-06T03:19:47.522Z,52
2017-07-06T03:20:55.589Z,52
2017-07-06T03:22:03.677Z,52
2017-07-06T03:23:11.767Z,52
2017-07-06T03:24:19.852Z,53
2017-07-06T03:25:27.940Z,52
2017-07-06T03:26:36.028Z,52
2017-07-06T03:27:44.117Z,52
2017-07-06T03:28:52.203Z,52
2017-07-06T03:30:00.291Z,53
2017-07-06T03:31:08.379Z,52
2017-07-06T03:32:16.465Z,52
2017-07-06T03:33:24.554Z,52
2017-07-06T03:34:32.641Z,52
2017-07-06T03:35:40.754Z,52
2017-07-06T03:36:48.900Z,52
2017-07-06T03:37:56.906Z,53
2017-07-06T03:39:04.992Z,52
2017-07-06T03:40:13.082Z,52
2017-07-06T03:41:21.169Z,52
2017-07-06T03:42:29.621Z,52
2017-07-06T03:43:37.343Z,52
2017-07-06T03:44:45.430Z,53
2017-07-06T03:45:53.522Z,53
2017-07-06T03:47:01.605Z,53
2017-07-06T03:48:09.696Z,53
2017-07-06T03:49:17.784Z,53
2017-07-06T03:50:25.874Z,53
2017-07-06T03:51:33.962Z,53
2017-07-06T03:52:42.057Z,53
2017-07-06T03:53:50.160Z,53
2017-07-06T03:54:58.230Z,53
2017-07-06T03:56:06.319Z,53
2017-07-06T03:57:14.406Z,53
2017-07-06T03:58:22.495Z,53
2017-07-06T03:59:30.583Z,53
2017-07-06T04:00:38.672Z,53
2017-07-06T04:01:46.756Z,53
2017-07-06T04:02:54.845Z,53
2017-07-06T04:04:02.933Z,53
2017-07-06T04:05:11.022Z,53
2017-07-06T04:06:19.111Z,53
2017-07-06T04:07:27.197Z,53
2017-07-06T04:08:35.286Z,53
2017-07-06T04:09:43.372Z,53
2017-07-06T04:10:51.668Z,53
2017-07-06T04:11:59.550Z,53
2017-07-06T04:13:07.636Z,54
2017-07-06T04:14:15.724Z,53
2017-07-06T04:15:23.810Z,53
2017-07-06T04:16:31.900Z,53
2017-07-06T04:17:39.989Z,53
2017-07-06T04:18:48.094Z,53
2017-07-06T04:19:56.313Z,53
2017-07-06T04:21:04.442Z,53
2017-07-06T04:22:12.343Z,53
2017-07-06T04:23:20.887Z,53
2017-07-06T04:24:28.516Z,53
2017-07-06T04:25:36.604Z,53
2017-07-06T04:26:44.715Z,53
2017-07-06T04:27:53.319Z,53
2017-07-06T04:29:00.866Z,53
2017-07-06T04:30:08.956Z,53
2017-07-06T04:31:17.044Z,53
2017-07-06T04:32:26.316Z,53
2017-07-06T04:33:33.215Z,53
2017-07-06T04:34:41.309Z,53
2017-07-06T04:35:49.426Z,53
2017-07-06T04:36:57.490Z,53
2017-07-06T04:38:05.576Z,53
2017-07-06T04:39:13.666Z,53
2017-07-06T04:40:21.753Z,53
2017-07-06T04:41:29.839Z,53
2017-07-06T04:42:37.932Z,54
2017-07-06T04:43:46.267Z,53
2017-07-06T04:44:54.207Z,53
2017-07-06T04:46:02.198Z,54
2017-07-06T04:47:10.452Z,53
2017-07-06T04:48:18.375Z,54
2017-07-06T04:49:26.462Z,54
2017-07-06T04:50:34.555Z,54
2017-07-06T04:51:42.687Z,53
2017-07-06T04:52:50.727Z,54
2017-07-06T04:53:58.814Z,53
2017-07-06T04:55:06.903Z,54
2017-07-06T04:56:14.990Z,54
2017-07-06T04:57:23.081Z,54
2017-07-06T04:58:31.167Z,54
2017-07-06T04:59:39.257Z,53
2017-07-06T05:00:47.368Z,53
2017-07-06T05:01:55.530Z,53
2017-07-06T05:03:03.518Z,53
2017-07-06T05:04:11.603Z,54
2017-07-06T05:05:19.695Z,54
2017-07-06T05:06:27.783Z,54
2017-07-06T05:07:35.871Z,54
2017-07-06T05:08:43.958Z,53
2017-07-06T05:09:52.045Z,53
2017-07-06T05:11:00.132Z,54
2017-07-06T05:12:08.221Z,54
2017-07-06T05:13:16.310Z,54
2017-07-06T05:14:24.397Z,54
2017-07-06T05:15:32.491Z,54
2017-07-06T05:16:40.580Z,54
2017-07-06T05:17:48.664Z,54
2017-07-06T05:18:56.773Z,54
2017-07-06T05:20:04.841Z,54
2017-07-06T05:21:12.929Z,54
2017-07-06T05:22:21.017Z,54
2017-07-06T05:23:29.105Z,54
2017-07-06T05:24:37.195Z,54
2017-07-06T05:25:45.282Z,54
2017-07-06T05:26:53.368Z,54
2017-07-06T05:28:01.456Z,54
2017-07-06T05:29:09.544Z,54
2017-07-06T05:30:17.631Z,54
2017-07-06T05:31:25.721Z,54
2017-07-06T05:32:33.809Z,54
2017-07-06T05:33:41.898Z,54
2017-07-06T05:34:49.985Z,54
2017-07-06T05:35:58.077Z,55
2017-07-06T05:37:06.160Z,55
2017-07-06T05:38:14.247Z,55
2017-07-06T05:39:22.334Z,55
2017-07-06T05:40:30.424Z,55
2017-07-06T05:41:38.512Z,55
2017-07-06T05:42:46.599Z,55
2017-07-06T05:43:54.689Z,54
2017-07-06T05:45:02.777Z,55
2017-07-06T05:46:10.862Z,54
2017-07-06T05:47:18.951Z,54
2017-07-06T05:48:27.040Z,54
2017-07-06T05:49:35.127Z,54
2017-07-06T05:50:43.222Z,54
2017-07-06T05:51:51.309Z,54
2017-07-06T05:52:59.422Z,54
2017-07-06T05:54:07.487Z,55
2017-07-06T05:55:15.573Z,55
2017-07-06T05:56:23.659Z,55
2017-07-06T05:57:31.749Z,55
2017-07-06T05:58:39.838Z,54
2017-07-06T05:59:47.925Z,54
2017-07-06T06:00:56.016Z,54
2017-07-06T06:02:04.104Z,55
2017-07-06T06:03:12.191Z,54
2017-07-06T06:04:20.277Z,54
2017-07-06T06:05:28.363Z,54
2017-07-06T06:06:36.453Z,55
2017-07-06T06:07:44.540Z,55
2017-07-06T06:08:52.630Z,55
2017-07-06T06:10:00.759Z,55
2017-07-06T06:11:08.806Z,55
2017-07-06T06:12:16.893Z,55
2017-07-06T06:13:24.980Z,55
2017-07-06T06:14:33.067Z,55
2017-07-06T06:15:41.157Z,54
2017-07-06T06:16:49.242Z,55
2017-07-06T06:17:57.335Z,54
2017-07-06T06:19:05.422Z,54
2017-07-06T06:20:13.512Z,54
2017-07-06T06:21:21.600Z,55
2017-07-06T06:22:29.689Z,54
2017-07-06T06:23:37.774Z,55
2017-07-06T06:24:45.862Z,55
2017-07-06T06:25:53.951Z,55
2017-07-06T06:27:02.079Z,54
2017-07-06T06:28:10.128Z,54
2017-07-06T06:29:18.216Z,54
2017-07-06T06:30:26.303Z,55
2017-07-06T06:31:34.393Z,55
2017-07-06T06:32:42.477Z,54
2017-07-06T06:33:50.565Z,54
2017-07-06T06:34:58.653Z,54
2017-07-06T06:36:06.740Z,55
2017-07-06T06:37:14.829Z,54
2017-07-06T06:38:22.916Z,54
2017-07-06T06:39:31.007Z,54
2017-07-06T06:40:39.096Z,54
2017-07-06T06:41:47.184Z,54
2017-07-06T06:42:55.272Z,54
2017-07-06T06:44:03.433Z,54
2017-07-06T06:45:11.446Z,54
2017-07-06T06:46:19.535Z,54
2017-07-06T06:47:27.720Z,54
2017-07-06T06:48:35.715Z,54
2017-07-06T06:49:43.800Z,54
2017-07-06T06:50:51.887Z,55
2017-07-06T06:51:59.976Z,54
2017-07-06T06:53:08.072Z,54
2017-07-06T06:54:16.158Z,55
2017-07-06T06:55:24.247Z,55
2017-07-06T06:56:32.335Z,55
2017-07-06T06:57:40.423Z,55
2017-07-06T06:58:48.512Z,55
2017-07-06T06:59:56.602Z,54
2017-07-06T07:01:04.688Z,54
2017-07-06T07:02:12.775Z,55
2017-07-06T07:03:20.862Z,54
2017-07-06T07:04:28.952Z,55
2017-07-06T07:05:37.039Z,55
2017-07-06T07:06:45.127Z,55
2017-07-06T07:07:53.217Z,55
2017-07-06T07:09:01.305Z,55
2017-07-06T07:10:09.393Z,55
2017-07-06T07:11:17.480Z,55
2017-07-06T07:12:25.566Z,55
2017-07-06T07:13:33.659Z,55
2017-07-06T07:14:41.749Z,55
2017-07-06T07:15:49.844Z,55
2017-07-06T07:16:57.927Z,55
2017-07-06T07:18:06.027Z,55
2017-07-06T07:19:14.101Z,55
2017-07-06T07:20:22.187Z,55
2017-07-06T07:21:30.277Z,55
2017-07-06T07:22:38.365Z,55
2017-07-06T07:23:46.452Z,55
2017-07-06T07:24:54.542Z,55
2017-07-06T07:26:02.630Z,55
2017-07-06T07:27:10.717Z,55
2017-07-06T07:28:18.808Z,55
2017-07-06T07:29:26.894Z,55
2017-07-06T07:30:34.990Z,54
2017-07-06T07:31:43.079Z,55
2017-07-06T07:32:51.168Z,55
2017-07-06T07:33:59.253Z,55
2017-07-06T07:35:07.380Z,55
2017-07-06T07:36:15.429Z,55
2017-07-06T07:37:23.518Z,55
2017-07-06T07:38:31.604Z,55
2017-07-06T07:39:39.695Z,55
2017-07-06T07:40:47.783Z,55
2017-07-06T07:41:55.871Z,55
2017-07-06T07:43:03.959Z,55
2017-07-06T07:44:12.047Z,54
2017-07-06T07:45:20.137Z,55
2017-07-06T07:46:28.225Z,54
2017-07-06T07:47:36.312Z,54
2017-07-06T07:48:44.399Z,55
2017-07-06T07:49:52.489Z,55
2017-07-06T07:51:00.577Z,54
2017-07-06T07:52:08.753Z,54
2017-07-06T07:53:16.762Z,54
2017-07-06T07:54:24.849Z,54
2017-07-06T07:55:32.936Z,54
2017-07-06T07:56:41.023Z,54
2017-07-06T07:57:49.113Z,54
2017-07-06T07:58:57.202Z,54
2017-07-06T08:00:05.288Z,54
2017-07-06T08:01:13.379Z,54
2017-07-06T08:02:21.492Z,54
2017-07-06T08:03:29.557Z,54
2017-07-06T08:04:37.651Z,54
2017-07-06T08:05:45.737Z,54
2017-07-06T08:06:53.827Z,54
2017-07-06T08:08:01.915Z,54
2017-07-06T08:09:10.007Z,54
2017-07-06T08:10:18.094Z,54
2017-07-06T08:11:26.182Z,54
2017-07-06T08:12:34.270Z,54
2017-07-06T08:13:42.360Z,54
2017-07-06T08:14:50.454Z,54
2017-07-06T08:15:58.543Z,54
2017-07-06T08:17:06.632Z,54
2017-07-06T08:18:14.721Z,54
2017-07-06T08:19:22.808Z,54
2017-07-06T08:20:30.900Z,54
2017-07-06T08:21:38.988Z,54
2017-07-06T08:22:47.076Z,54
2017-07-06T08:23:55.164Z,54
2017-07-06T08:25:03.248Z,54
2017-07-06T08:26:11.386Z,54
2017-07-06T08:27:19.430Z,54
2017-07-06T08:28:27.519Z,55
2017-07-06T08:29:35.605Z,54
2017-07-06T08:30:43.705Z,54
2017-07-06T08:31:51.788Z,54
2017-07-06T08:32:59.880Z,54
2017-07-06T08:34:07.966Z,54
2017-07-06T08:35:16.057Z,54
2017-07-06T08:36:24.146Z,54
2017-07-06T08:37:32.238Z,54
2017-07-06T08:38:40.329Z,54
2017-07-06T08:39:48.416Z,55
2017-07-06T08:40:56.505Z,54
2017-07-06T08:42:04.594Z,55
2017-07-06T08:43:12.682Z,55
2017-07-06T08:44:20.771Z,54
2017-07-06T08:45:28.864Z,55
2017-07-06T08:46:36.950Z,54
2017-07-06T08:47:45.039Z,55
2017-07-06T08:48:53.127Z,55
2017-07-06T08:50:01.314Z,55
2017-07-06T08:51:09.305Z,55
2017-07-06T08:52:17.393Z,55
2017-07-06T08:53:25.480Z,55
2017-07-06T08:54:33.570Z,55
2017-07-06T08:55:41.659Z,55
2017-07-06T08:56:49.748Z,55
2017-07-06T08:57:57.836Z,55
2017-07-06T08:59:05.930Z,55
2017-07-06T09:00:14.018Z,55
2017-07-06T09:01:22.108Z,55
2017-07-06T09:02:30.198Z,55
2017-07-06T09:03:38.286Z,54
2017-07-06T09:04:46.375Z,55
2017-07-06T09:05:54.466Z,55
2017-07-06T09:07:02.556Z,54
2017-07-06T09:08:10.641Z,55
2017-07-06T09:09:18.730Z,55
2017-07-06T09:10:26.819Z,54
2017-07-06T09:11:34.909Z,54
2017-07-06T09:12:42.998Z,54
2017-07-06T09:13:51.091Z,54
2017-07-06T09:14:59.178Z,54
2017-07-06T09:16:07.267Z,54
2017-07-06T09:17:15.367Z,54
2017-07-06T09:18:23.457Z,54
2017-07-06T09:19:31.545Z,54
2017-07-06T09:20:39.635Z,54
2017-07-06T09:21:47.725Z,54
2017-07-06T09:22:55.814Z,55
2017-07-06T09:24:03.902Z,54
2017-07-06T09:25:11.990Z,54
2017-07-06T09:26:20.078Z,54
2017-07-06T09:27:28.169Z,54
2017-07-06T09:28:36.280Z,54
2017-07-06T09:29:44.347Z,54
2017-07-06T09:30:52.437Z,54
2017-07-06T09:32:00.524Z,54
2017-07-06T09:33:08.614Z,54
2017-07-06T09:34:16.704Z,54
2017-07-06T09:35:24.790Z,54
2017-07-06T09:36:32.879Z,54
2017-07-06T09:37:40.967Z,54
2017-07-06T09:38:49.059Z,54
2017-07-06T09:39:57.148Z,54
2017-07-06T09:41:05.236Z,54
2017-07-06T09:42:13.328Z,54
2017-07-06T09:43:21.415Z,54
2017-07-06T09:44:29.510Z,54
2017-07-06T09:45:37.599Z,54
2017-07-06T09:46:45.688Z,54
2017-07-06T09:47:53.781Z,54
2017-07-06T09:49:01.868Z,54
2017-07-06T09:50:09.958Z,54
2017-07-06T09:51:18.071Z,54
2017-07-06T09:52:26.142Z,54
2017-07-06T09:53:34.228Z,54
2017-07-06T09:54:42.319Z,54
2017-07-06T09:55:50.409Z,55
2017-07-06T09:56:58.499Z,54
2017-07-06T09:58:06.587Z,54
2017-07-06T09:59:14.676Z,55
2017-07-06T10:00:22.766Z,55
2017-07-06T10:01:30.854Z,55
2017-07-06T10:02:38.966Z,54
2017-07-06T10:03:47.032Z,54
2017-07-06T10:04:55.120Z,55
2017-07-06T10:06:03.211Z,55
2017-07-06T10:07:11.301Z,54
2017-07-06T10:08:19.388Z,54
2017-07-06T10:09:27.480Z,54
2017-07-06T10:10:35.565Z,54
2017-07-06T10:11:43.655Z,54
2017-07-06T10:12:51.752Z,54
2017-07-06T10:13:59.843Z,54
2017-07-06T10:15:07.934Z,54
2017-07-06T10:16:16.026Z,54
2017-07-06T10:17:24.114Z,55
2017-07-06T10:18:32.200Z,54
2017-07-06T10:19:40.293Z,54
2017-07-06T10:20:48.380Z,54
2017-07-06T10:21:56.469Z,54
2017-07-06T10:23:04.559Z,54
2017-07-06T10:24:12.647Z,55
2017-07-06T10:25:20.739Z,54
2017-07-06T10:26:28.826Z,54
2017-07-06T10:27:36.914Z,54
2017-07-06T10:28:45.001Z,54
2017-07-06T10:29:53.092Z,54
2017-07-06T10:31:01.181Z,54
2017-07-06T10:32:09.271Z,54
2017-07-06T10:33:17.360Z,54
2017-07-06T10:34:25.449Z,54
2017-07-06T10:35:33.537Z,54
2017-07-06T10:36:41.628Z,54
2017-07-06T10:37:49.716Z,54
2017-07-06T10:38:57.805Z,54
2017-07-06T10:40:05.898Z,54
2017-07-06T10:41:13.987Z,54
2017-07-06T10:42:22.077Z,54
2017-07-06T10:43:30.166Z,54
2017-07-06T10:44:38.256Z,54
2017-07-06T10:45:46.346Z,54
2017-07-06T10:46:54.441Z,54
2017-07-06T10:48:02.529Z,54
2017-07-06T10:49:10.619Z,54
2017-07-06T10:50:18.713Z,54
2017-07-06T10:51:26.802Z,54
2017-07-06T10:52:34.893Z,54
2017-07-06T10:53:42.981Z,54
2017-07-06T10:54:51.068Z,54
2017-07-06T10:55:59.159Z,54
2017-07-06T10:57:07.248Z,54
2017-07-06T10:58:15.339Z,54
2017-07-06T10:59:23.427Z,54
2017-07-06T11:00:31.519Z,54
2017-07-06T11:01:39.608Z,55
2017-07-06T11:02:47.697Z,54
2017-07-06T11:03:55.784Z,54
2017-07-06T11:05:03.869Z,54
2017-07-06T11:06:11.959Z,54
2017-07-06T11:07:20.053Z,54
2017-07-06T11:08:28.144Z,54
2017-07-06T11:09:36.241Z,54
2017-07-06T11:10:44.324Z,54
2017-07-06T11:11:52.413Z,54
2017-07-06T11:13:00.502Z,54
2017-07-06T11:14:08.591Z,54
2017-07-06T11:15:16.678Z,54
2017-07-06T11:16:24.768Z,54
2017-07-06T11:17:32.858Z,54
2017-07-06T11:18:40.947Z,54
2017-07-06T11:19:49.039Z,54
2017-07-06T11:20:57.128Z,54
2017-07-06T11:22:05.216Z,54
2017-07-06T11:23:13.303Z,54
2017-07-06T11:24:21.391Z,54
2017-07-06T11:25:29.480Z,54
2017-07-06T11:26:37.570Z,54
2017-07-06T11:27:45.659Z,54
2017-07-06T11:28:53.748Z,54
2017-07-06T11:30:01.833Z,54
2017-07-06T11:31:09.925Z,54
2017-07-06T11:32:18.015Z,54
2017-07-06T11:33:26.105Z,54
2017-07-06T11:34:34.192Z,54
2017-07-06T11:35:42.283Z,54
2017-07-06T11:36:50.371Z,54
2017-07-06T11:37:58.463Z,54
2017-07-06T11:39:06.556Z,54
2017-07-06T11:40:14.642Z,54
2017-07-06T11:41:22.733Z,54
2017-07-06T11:42:30.821Z,54
2017-07-06T11:43:38.911Z,54
2017-07-06T11:44:47.002Z,54
2017-07-06T11:45:55.092Z,54
2017-07-06T11:47:03.181Z,54
2017-07-06T11:48:11.271Z,54
2017-07-06T11:49:19.413Z,54
2017-07-06T11:50:27.451Z,54
2017-07-06T11:51:35.540Z,54
2017-07-06T11:52:43.629Z,54
2017-07-06T11:53:51.725Z,54
2017-07-06T11:54:59.815Z,54
2017-07-06T11:56:07.907Z,54
2017-07-06T11:57:15.995Z,54
2017-07-06T11:58:24.088Z,54
2017-07-06T11:59:32.176Z,54
2017-07-06T12:00:40.268Z,54
2017-07-06T12:01:48.354Z,54
2017-07-06T12:02:56.444Z,54
2017-07-06T12:04:04.534Z,54
2017-07-06T12:05:12.622Z,54
2017-07-06T12:06:20.713Z,54
2017-07-06T12:07:28.804Z,54
2017-07-06T12:08:36.901Z,54
2017-07-06T12:09:44.990Z,54
2017-07-06T12:10:53.080Z,54
2017-07-06T12:12:01.170Z,54
2017-07-06T12:13:09.263Z,54
2017-07-06T12:14:17.353Z,54
2017-07-06T12:15:25.441Z,54
2017-07-06T12:16:33.533Z,54
2017-07-06T12:17:41.621Z,54
2017-07-06T12:18:49.709Z,54
2017-07-06T12:19:57.800Z,54
2017-07-06T12:21:05.888Z,55
2017-07-06T12:22:13.978Z,54
2017-07-06T12:23:22.067Z,54
2017-07-06T12:24:30.159Z,55
2017-07-06T12:25:38.247Z,54
2017-07-06T12:26:46.338Z,54
2017-07-06T12:27:54.426Z,54
2017-07-06T12:29:02.515Z,54
2017-07-06T12:30:10.604Z,54
2017-07-06T12:31:18.696Z,54
2017-07-06T12:32:26.784Z,54
2017-07-06T12:33:34.874Z,54
2017-07-06T12:34:42.965Z,54
2017-07-06T12:35:51.053Z,54
2017-07-06T12:36:59.145Z,54
2017-07-06T12:38:07.234Z,55
2017-07-06T12:39:15.325Z,54
2017-07-06T12:40:23.412Z,54
2017-07-06T12:41:31.502Z,54
2017-07-06T12:42:39.592Z,54
2017-07-06T12:43:47.681Z,54
2017-07-06T12:44:55.772Z,54
2017-07-06T12:46:03.861Z,54
2017-07-06T12:47:11.949Z,54
2017-07-06T12:48:20.039Z,54
2017-07-06T12:49:28.128Z,54
2017-07-06T12:50:36.218Z,54
2017-07-06T12:51:44.309Z,54
2017-07-06T12:52:52.399Z,54
2017-07-06T12:54:00.488Z,54
2017-07-06T12:55:08.577Z,54
2017-07-06T12:56:16.668Z,54
2017-07-06T12:57:24.754Z,54
2017-07-06T12:58:32.848Z,54
2017-07-06T12:59:40.932Z,54
2017-07-06T13:00:49.023Z,54
2017-07-06T13:01:57.112Z,54
2017-07-06T13:03:05.204Z,54
2017-07-06T13:04:13.292Z,54
2017-07-06T13:05:21.381Z,54
2017-07-06T13:06:29.473Z,54
2017-07-06T13:07:37.560Z,54
2017-07-06T13:08:45.649Z,54
2017-07-06T13:09:53.740Z,54
2017-07-06T13:11:01.828Z,54
2017-07-06T13:12:09.972Z,54
2017-07-06T13:13:18.007Z,54
2017-07-06T13:14:26.097Z,54
2017-07-06T13:15:34.188Z,54
2017-07-06T13:16:42.276Z,54
2017-07-06T13:17:50.373Z,54
2017-07-06T13:18:58.462Z,54
2017-07-06T13:20:06.576Z,54
2017-07-06T13:21:14.641Z,54
2017-07-06T13:22:22.729Z,54
2017-07-06T13:23:30.821Z,54
2017-07-06T13:24:38.969Z,54
2017-07-06T13:25:47.000Z,54
2017-07-06T13:26:55.089Z,54
2017-07-06T13:28:03.180Z,54
2017-07-06T13:29:11.271Z,55
2017-07-06T13:30:19.358Z,55
2017-07-06T13:31:27.450Z,54
2017-07-06T13:32:35.540Z,55
2017-07-06T13:33:43.629Z,55
2017-07-06T13:34:51.721Z,54
2017-07-06T13:35:59.809Z,55
2017-07-06T13:37:07.897Z,55
2017-07-06T13:38:15.999Z,55
2017-07-06T13:39:24.077Z,55
2017-07-06T13:40:32.168Z,55
2017-07-06T13:41:40.258Z,55
2017-07-06T13:42:48.346Z,54
2017-07-06T13:43:56.444Z,55
2017-07-06T13:45:04.528Z,54
2017-07-06T13:46:12.615Z,54
2017-07-06T13:47:20.713Z,54
2017-07-06T13:48:28.804Z,55
2017-07-06T13:49:36.893Z,55
2017-07-06T13:50:44.984Z,55
2017-07-06T13:51:53.073Z,55
2017-07-06T13:53:01.161Z,54
2017-07-06T13:54:09.252Z,54
2017-07-06T13:55:17.342Z,54
2017-07-06T13:56:25.431Z,54
2017-07-06T13:57:33.519Z,54
2017-07-06T13:58:41.610Z,54
2017-07-06T13:59:49.699Z,55
2017-07-06T14:00:57.791Z,54
2017-07-06T14:02:05.883Z,55
2017-07-06T14:03:13.973Z,55
2017-07-06T14:04:22.061Z,54
2017-07-06T14:05:30.151Z,55
2017-07-06T14:06:38.242Z,54
2017-07-06T14:07:46.331Z,55
2017-07-06T14:08:54.445Z,55
2017-07-06T14:10:02.513Z,55
2017-07-06T14:11:10.602Z,55
2017-07-06T14:12:18.691Z,55
2017-07-06T14:13:26.780Z,55
2017-07-06T14:14:34.870Z,55
2017-07-06T14:15:42.959Z,55
2017-07-06T14:16:51.049Z,55
2017-07-06T14:17:59.141Z,55
2017-07-06T14:19:07.228Z,55
2017-07-06T14:20:15.319Z,55
2017-07-06T14:21:23.411Z,55
2017-07-06T14:22:31.500Z,55
2017-07-06T14:23:39.590Z,55
2017-07-06T14:24:47.680Z,55
2017-07-06T14:25:55.770Z,55
2017-07-06T14:27:03.861Z,55
2017-07-06T14:28:11.950Z,55
2017-07-06T14:29:20.042Z,55
2017-07-06T14:30:28.132Z,55
2017-07-06T14:31:36.221Z,55
2017-07-06T14:32:44.312Z,55
2017-07-06T14:33:52.402Z,55
2017-07-06T14:35:00.490Z,54
2017-07-06T14:36:08.580Z,52
2017-07-06T14:37:16.669Z,51
2017-07-06T14:38:24.760Z,51
2017-07-06T14:39:32.850Z,50
2017-07-06T14:40:40.941Z,49
2017-07-06T14:41:49.030Z,49
2017-07-06T14:42:57.120Z,48
2017-07-06T14:44:05.211Z,48
2017-07-06T14:45:13.300Z,47
2017-07-06T14:46:21.388Z,47
2017-07-06T14:47:29.486Z,47
2017-07-06T14:48:37.575Z,47
2017-07-06T14:49:45.665Z,46
2017-07-06T14:50:53.756Z,46
2017-07-06T14:52:01.844Z,46
2017-07-06T14:53:09.935Z,46
2017-07-06T14:54:18.025Z,45
2017-07-06T14:55:26.113Z,45
2017-07-06T14:56:34.211Z,45
2017-07-06T14:57:42.788Z,45
2017-07-06T14:58:50.390Z,45
2017-07-06T14:59:58.481Z,45
2017-07-06T15:01:06.569Z,45
2017-07-06T15:02:14.658Z,46
2017-07-06T15:03:22.747Z,45
2017-07-06T15:04:30.840Z,44
2017-07-06T15:05:38.928Z,44
2017-07-06T15:06:47.018Z,44
2017-07-06T15:07:55.109Z,44
2017-07-06T15:09:03.200Z,44
2017-07-06T15:10:11.288Z,44
2017-07-06T15:11:19.377Z,44
2017-07-06T15:12:27.489Z,44
2017-07-06T15:13:35.554Z,43
2017-07-06T15:14:43.644Z,44
2017-07-06T15:15:51.736Z,44
2017-07-06T15:16:59.825Z,44
2017-07-06T15:18:07.920Z,44
2017-07-06T15:19:16.010Z,43
2017-07-06T15:20:24.099Z,44
2017-07-06T15:21:32.189Z,43
2017-07-06T15:22:40.280Z,44
2017-07-06T15:23:48.371Z,44
2017-07-06T15:24:56.461Z,44
2017-07-06T15:26:04.550Z,44
2017-07-06T15:27:12.644Z,43
2017-07-06T15:28:20.732Z,44
2017-07-06T15:29:28.822Z,44
2017-07-06T15:30:36.911Z,44
2017-07-06T15:31:45.066Z,44
2017-07-06T15:32:53.095Z,44
2017-07-06T15:34:01.181Z,45
2017-07-06T15:35:09.272Z,44
2017-07-06T15:36:17.410Z,43
2017-07-06T15:37:25.452Z,43
2017-07-06T15:38:33.546Z,43
2017-07-06T15:39:41.637Z,43
2017-07-06T15:40:49.725Z,43
2017-07-06T15:41:57.816Z,43
2017-07-06T15:43:05.907Z,43
2017-07-06T15:44:13.995Z,43
2017-07-06T15:45:22.085Z,43
2017-07-06T15:46:30.178Z,43
2017-07-06T15:47:38.267Z,43
2017-07-06T15:48:46.376Z,43
2017-07-06T15:49:54.446Z,43
2017-07-06T15:51:02.537Z,43
2017-07-06T15:52:10.628Z,43
2017-07-06T15:53:18.717Z,42
2017-07-06T15:54:26.809Z,42
2017-07-06T15:55:34.902Z,42
2017-07-06T15:56:42.991Z,42
2017-07-06T15:57:51.087Z,42
2017-07-06T15:58:59.176Z,43
2017-07-06T16:00:07.268Z,42
2017-07-06T16:01:15.349Z,42
2017-07-06T16:02:23.449Z,42
2017-07-06T16:03:31.526Z,42
2017-07-06T16:04:39.619Z,42
2017-07-06T16:05:47.711Z,42
2017-07-06T16:06:55.802Z,42
2017-07-06T16:08:03.888Z,42
2017-07-06T16:09:11.979Z,42
2017-07-06T16:10:20.068Z,42